sensor_id;sensor_type;location;lat;lon;timestamp;temperature;humidity
17944;DHT22;9097;47.028;15.444;2024-02-21T07:54:10;6.70;99.90
17944;DHT22;9097;47.028;15.444;2024-02-21T07:57:12;7.10;99.90
17944;DHT22;9097;47.028;15.444;2024-02-21T08:00:18;7.10;99.90
17944;DHT22;9097;47.028;15.444;2024-02-21T08:03:22;7.40;99.90
17944;DHT22;9097;47.028;15.444;2024-02-21T08:06:26;7.50;99.90
17944;DHT22;9097;47.028;15.444;2024-02-21T08:09:29;7.90;99.90
17944;DHT22;9097;47.028;15.444;2024-02-21T08:12:31;7.80;99.90
17944;DHT22;9097;47.028;15.444;2024-02-21T08:15:35;7.90;99.90
17944;DHT22;9097;47.028;15.444;2024-02-21T08:18:40;8.00;99.90
17944;DHT22;9097;47.028;15.444;2024-02-21T08:21:44;8.00;99.90
17944;DHT22;9097;47.028;15.444;2024-02-21T08:24:48;8.10;99.90
17944;DHT22;9097;47.028;15.444;2024-02-21T08:27:50;8.30;99.90
17944;DHT22;9097;47.028;15.444;2024-02-21T08:30:55;8.40;99.90
17944;DHT22;9097;47.028;15.444;2024-02-21T08:33:58;8.40;99.90
17944;DHT22;9097;47.028;15.444;2024-02-21T08:37:03;8.50;99.90
17944;DHT22;9097;47.028;15.444;2024-02-21T08:40:06;8.60;99.90
17944;DHT22;9097;47.028;15.444;2024-02-21T08:43:10;8.60;99.90
17944;DHT22;9097;47.028;15.444;2024-02-21T08:46:14;8.50;99.90
17944;DHT22;9097;47.028;15.444;2024-02-21T08:49:16;8.50;99.90
17944;DHT22;9097;47.028;15.444;2024-02-21T08:52:19;8.40;99.90
17944;DHT22;9097;47.028;15.444;2024-02-21T08:55:21;8.30;99.90
17944;DHT22;9097;47.028;15.444;2024-02-21T08:58:23;8.30;99.90
17944;DHT22;9097;47.028;15.444;2024-02-21T09:01:29;8.40;99.90
17944;DHT22;9097;47.028;15.444;2024-02-21T09:04:31;8.60;99.90
17944;DHT22;9097;47.028;15.444;2024-02-21T09:07:34;8.80;99.90
17944;DHT22;9097;47.028;15.444;2024-02-21T09:10:36;9.00;99.90
17944;DHT22;9097;47.028;15.444;2024-02-21T09:13:39;9.40;99.90
17944;DHT22;9097;47.028;15.444;2024-02-21T09:16:43;9.40;99.90
17944;DHT22;9097;47.028;15.444;2024-02-21T09:19:46;9.60;99.90
17944;DHT22;9097;47.028;15.444;2024-02-21T18:27:42;8.20;99.90
17944;DHT22;9097;47.028;15.444;2024-02-21T18:30:44;7.00;99.90
17944;DHT22;9097;47.028;15.444;2024-02-21T18:33:47;6.90;99.90
17944;DHT22;9097;47.028;15.444;2024-02-21T18:36:49;6.90;99.90
17944;DHT22;9097;47.028;15.444;2024-02-21T18:39:51;6.90;99.90
17944;DHT22;9097;47.028;15.444;2024-02-21T18:42:56;6.90;99.90
17944;DHT22;9097;47.028;15.444;2024-02-21T18:45:59;6.80;99.90
17944;DHT22;9097;47.028;15.444;2024-02-21T18:49:01;6.80;99.90
17944;DHT22;9097;47.028;15.444;2024-02-21T18:52:06;6.80;99.90
17944;DHT22;9097;47.028;15.444;2024-02-21T18:55:11;6.80;99.90
17944;DHT22;9097;47.028;15.444;2024-02-21T18:58:15;6.70;99.90
17944;DHT22;9097;47.028;15.444;2024-02-21T19:01:17;6.70;99.90
17944;DHT22;9097;47.028;15.444;2024-02-21T19:04:21;6.60;99.90
17944;DHT22;9097;47.028;15.444;2024-02-21T19:07:25;6.70;99.90
17944;DHT22;9097;47.028;15.444;2024-02-21T19:10:28;6.70;99.90
17944;DHT22;9097;47.028;15.444;2024-02-21T19:13:32;6.70;99.90
17944;DHT22;9097;47.028;15.444;2024-02-21T19:16:34;6.80;99.90
17944;DHT22;9097;47.028;15.444;2024-02-21T19:19:38;6.80;99.90
17944;DHT22;9097;47.028;15.444;2024-02-21T19:22:40;6.80;99.90
17944;DHT22;9097;47.028;15.444;2024-02-21T19:25:46;6.80;99.90
17944;DHT22;9097;47.028;15.444;2024-02-21T19:28:50;6.70;99.90
17944;DHT22;9097;47.028;15.444;2024-02-21T19:31:54;6.70;99.90
17944;DHT22;9097;47.028;15.444;2024-02-21T19:34:56;6.60;99.90
17944;DHT22;9097;47.028;15.444;2024-02-21T19:37:59;6.60;99.90
17944;DHT22;9097;47.028;15.444;2024-02-21T19:41:04;6.50;99.90
17944;DHT22;9097;47.028;15.444;2024-02-21T19:44:08;6.40;99.90
17944;DHT22;9097;47.028;15.444;2024-02-21T19:47:11;6.30;99.90
17944;DHT22;9097;47.028;15.444;2024-02-21T19:50:14;6.30;99.90
17944;DHT22;9097;47.028;15.444;2024-02-21T19:53:21;6.20;99.90
17944;DHT22;9097;47.028;15.444;2024-02-21T19:56:24;6.20;99.90
17944;DHT22;9097;47.028;15.444;2024-02-21T19:59:39;6.20;99.90
17944;DHT22;9097;47.028;15.444;2024-02-21T20:03:32;6.10;99.90
17944;DHT22;9097;47.028;15.444;2024-02-21T20:06:59;6.10;99.90
17944;DHT22;9097;47.028;15.444;2024-02-21T20:10:03;6.00;99.90
17944;DHT22;9097;47.028;15.444;2024-02-21T20:13:08;5.90;99.90
17944;DHT22;9097;47.028;15.444;2024-02-21T20:16:12;5.90;99.90
17944;DHT22;9097;47.028;15.444;2024-02-21T20:19:14;5.80;99.90
17944;DHT22;9097;47.028;15.444;2024-02-21T20:22:17;5.80;99.90
17944;DHT22;9097;47.028;15.444;2024-02-21T20:25:19;5.80;99.90
17944;DHT22;9097;47.028;15.444;2024-02-21T20:28:21;5.80;99.90
17944;DHT22;9097;47.028;15.444;2024-02-21T20:31:26;5.70;99.90
17944;DHT22;9097;47.028;15.444;2024-02-21T20:34:28;5.70;99.90
17944;DHT22;9097;47.028;15.444;2024-02-21T20:37:31;5.70;99.90
17944;DHT22;9097;47.028;15.444;2024-02-21T20:40:34;5.60;99.90
17944;DHT22;9097;47.028;15.444;2024-02-21T20:43:37;5.80;99.90
17944;DHT22;9097;47.028;15.444;2024-02-21T20:46:41;5.80;99.90
17944;DHT22;9097;47.028;15.444;2024-02-21T20:49:43;5.80;99.90
17944;DHT22;9097;47.028;15.444;2024-02-21T20:52:45;5.70;99.90
17944;DHT22;9097;47.028;15.444;2024-02-21T20:55:47;5.70;99.90
17944;DHT22;9097;47.028;15.444;2024-02-21T20:58:50;5.60;99.90
17944;DHT22;9097;47.028;15.444;2024-02-21T21:01:55;5.60;99.90
17944;DHT22;9097;47.028;15.444;2024-02-21T21:04:58;5.70;99.90
17944;DHT22;9097;47.028;15.444;2024-02-21T21:08:00;5.50;99.90
17944;DHT22;9097;47.028;15.444;2024-02-21T21:14:06;5.50;99.90
17944;DHT22;9097;47.028;15.444;2024-02-21T21:17:10;5.40;99.90
17944;DHT22;9097;47.028;15.444;2024-02-21T21:20:14;5.30;99.90
17944;DHT22;9097;47.028;15.444;2024-02-21T21:23:17;5.30;99.90
17944;DHT22;9097;47.028;15.444;2024-02-21T21:26:20;5.20;99.90
17944;DHT22;9097;47.028;15.444;2024-02-21T21:29:22;5.20;99.90
17944;DHT22;9097;47.028;15.444;2024-02-21T21:32:26;5.10;99.90
17944;DHT22;9097;47.028;15.444;2024-02-21T21:35:31;5.10;99.90
17944;DHT22;9097;47.028;15.444;2024-02-21T21:38:34;5.00;99.90
17944;DHT22;9097;47.028;15.444;2024-02-21T21:41:36;4.90;99.90
17944;DHT22;9097;47.028;15.444;2024-02-21T21:44:39;4.80;99.90
17944;DHT22;9097;47.028;15.444;2024-02-21T21:47:42;4.80;99.90
17944;DHT22;9097;47.028;15.444;2024-02-21T21:50:45;4.70;99.90
17944;DHT22;9097;47.028;15.444;2024-02-21T21:53:47;4.80;99.90
17944;DHT22;9097;47.028;15.444;2024-02-21T21:59:53;4.50;99.90
17944;DHT22;9097;47.028;15.444;2024-02-21T22:02:57;4.50;99.90
17944;DHT22;9097;47.028;15.444;2024-02-21T22:05:59;4.60;99.90
17944;DHT22;9097;47.028;15.444;2024-02-21T22:09:02;4.80;99.90
17944;DHT22;9097;47.028;15.444;2024-02-21T22:12:07;4.80;99.90
17944;DHT22;9097;47.028;15.444;2024-02-21T22:15:09;4.70;99.90
17944;DHT22;9097;47.028;15.444;2024-02-21T22:18:13;4.70;99.90
17944;DHT22;9097;47.028;15.444;2024-02-21T22:21:16;4.60;99.90
17944;DHT22;9097;47.028;15.444;2024-02-21T22:24:18;4.70;99.90
17944;DHT22;9097;47.028;15.444;2024-02-21T22:27:21;4.60;99.90
17944;DHT22;9097;47.028;15.444;2024-02-21T22:33:29;4.50;99.90
17944;DHT22;9097;47.028;15.444;2024-02-21T22:36:32;4.60;99.90
17944;DHT22;9097;47.028;15.444;2024-02-21T22:39:34;4.70;99.90
17944;DHT22;9097;47.028;15.444;2024-02-21T22:42:37;4.80;99.90
17944;DHT22;9097;47.028;15.444;2024-02-21T22:45:39;4.80;99.90
17944;DHT22;9097;47.028;15.444;2024-02-21T22:48:44;4.80;99.90
17944;DHT22;9097;47.028;15.444;2024-02-21T22:51:48;4.80;99.90
17944;DHT22;9097;47.028;15.444;2024-02-21T22:54:50;4.80;99.90
17944;DHT22;9097;47.028;15.444;2024-02-21T22:57:52;4.60;99.90
17944;DHT22;9097;47.028;15.444;2024-02-21T23:00:55;4.90;99.90
17944;DHT22;9097;47.028;15.444;2024-02-21T23:03:59;4.80;99.90
17944;DHT22;9097;47.028;15.444;2024-02-21T23:07:03;4.70;99.90
17944;DHT22;9097;47.028;15.444;2024-02-21T23:10:07;4.70;99.90
17944;DHT22;9097;47.028;15.444;2024-02-21T23:13:09;4.70;99.90
17944;DHT22;9097;47.028;15.444;2024-02-21T23:16:12;4.80;99.90
17944;DHT22;9097;47.028;15.444;2024-02-21T23:19:15;4.90;99.90
17944;DHT22;9097;47.028;15.444;2024-02-21T23:22:18;4.90;99.90
17944;DHT22;9097;47.028;15.444;2024-02-21T23:25:21;4.90;99.90
17944;DHT22;9097;47.028;15.444;2024-02-21T23:28:24;4.90;99.90
17944;DHT22;9097;47.028;15.444;2024-02-21T23:31:27;4.90;99.90
17944;DHT22;9097;47.028;15.444;2024-02-21T23:34:31;4.90;99.90
17944;DHT22;9097;47.028;15.444;2024-02-21T23:37:35;5.00;99.90
17944;DHT22;9097;47.028;15.444;2024-02-21T23:40:37;5.10;99.90
17944;DHT22;9097;47.028;15.444;2024-02-21T23:43:40;5.20;99.90
17944;DHT22;9097;47.028;15.444;2024-02-21T23:46:43;5.30;99.90
17944;DHT22;9097;47.028;15.444;2024-02-21T23:49:47;5.30;99.90
17944;DHT22;9097;47.028;15.444;2024-02-21T23:52:50;5.00;99.90
17944;DHT22;9097;47.028;15.444;2024-02-21T23:55:52;4.90;99.90
17944;DHT22;9097;47.028;15.444;2024-02-21T23:58:55;4.90;99.90
